createdAt,value
2022-12-08T00:01:07.978Z,14.88
2022-12-08T00:03:35.675Z,14.88
2022-12-08T00:06:22.259Z,14.89
2022-12-08T00:09:07.606Z,14.93
2022-12-08T00:11:34.188Z,14.94
2022-12-08T00:14:01.312Z,14.96
2022-12-08T00:16:27.937Z,14.97
2022-12-08T00:18:54.581Z,14.98
2022-12-08T00:21:21.128Z,14.97
2022-12-08T00:23:47.675Z,14.97
2022-12-08T00:26:14.252Z,14.97
2022-12-08T00:28:40.799Z,14.94
2022-12-08T00:31:08.901Z,14.94
2022-12-08T00:33:36.367Z,14.93
2022-12-08T00:36:11.136Z,14.90
2022-12-08T00:38:38.151Z,14.90
2022-12-08T00:41:08.833Z,14.89
2022-12-08T00:43:35.365Z,14.88
2022-12-08T00:46:01.978Z,14.85
2022-12-08T00:48:28.578Z,14.85
2022-12-08T00:50:55.114Z,14.82
2022-12-08T00:53:21.704Z,14.83
2022-12-08T00:55:48.243Z,14.82
2022-12-08T00:58:14.785Z,14.82
2022-12-08T01:00:42.259Z,14.81
2022-12-08T01:03:12.503Z,14.81
2022-12-08T01:05:39.596Z,14.82
2022-12-08T01:08:07.281Z,14.82
2022-12-08T01:10:38.001Z,14.81
2022-12-08T01:13:04.785Z,14.81
2022-12-08T01:15:31.337Z,14.84
2022-12-08T01:17:57.894Z,14.85
2022-12-08T01:20:24.547Z,14.88
2022-12-08T01:22:51.103Z,14.89
2022-12-08T01:25:17.699Z,14.90
2022-12-08T01:27:44.258Z,14.91
2022-12-08T01:30:11.195Z,14.93
2022-12-08T01:32:37.813Z,14.94
2022-12-08T01:35:04.544Z,14.96
2022-12-08T01:37:31.115Z,14.96
2022-12-08T01:39:57.665Z,14.97
2022-12-08T01:42:24.990Z,14.94
2022-12-08T01:45:03.013Z,14.93
2022-12-08T01:47:35.032Z,14.94
2022-12-08T01:50:02.756Z,14.93
2022-12-08T01:52:38.037Z,14.89
2022-12-08T01:55:31.341Z,14.88
2022-12-08T01:58:02.440Z,14.88
2022-12-08T02:00:28.978Z,14.83
2022-12-08T02:02:59.683Z,14.84
2022-12-08T02:05:37.753Z,14.81
2022-12-08T02:08:08.172Z,14.81
2022-12-08T02:10:37.405Z,14.80
2022-12-08T02:13:05.829Z,14.76
2022-12-08T02:15:58.932Z,14.78
2022-12-08T02:19:22.420Z,14.77
2022-12-08T02:21:49.972Z,14.77
2022-12-08T02:24:38.302Z,14.77
2022-12-08T02:27:37.102Z,14.77
2022-12-08T02:30:06.820Z,14.79
2022-12-08T02:32:42.344Z,14.79
2022-12-08T02:35:14.744Z,14.80
2022-12-08T02:37:47.504Z,14.84
2022-12-08T02:40:30.726Z,14.89
2022-12-08T02:43:10.061Z,14.88
2022-12-08T02:45:41.386Z,14.93
2022-12-08T02:48:09.195Z,14.95
2022-12-08T02:50:35.736Z,14.95
2022-12-08T02:55:55.624Z,14.97
2022-12-08T02:58:35.435Z,14.96
2022-12-08T03:01:30.100Z,14.94
2022-12-08T03:04:29.756Z,14.92
2022-12-08T03:07:02.844Z,14.89
2022-12-08T03:09:58.750Z,14.89
2022-12-08T03:12:38.686Z,14.88
2022-12-08T03:15:09.745Z,14.85
2022-12-08T03:17:37.340Z,14.85
2022-12-08T03:20:07.663Z,14.81
2022-12-08T03:22:34.419Z,14.80
2022-12-08T03:25:01.546Z,14.78
2022-12-08T03:27:29.954Z,14.78
2022-12-08T03:29:58.185Z,14.76
2022-12-08T03:33:02.411Z,14.76
2022-12-08T03:35:31.635Z,14.76
2022-12-08T03:38:10.783Z,14.75
2022-12-08T03:40:38.002Z,14.75
2022-12-08T03:43:04.704Z,14.74
2022-12-08T03:45:31.392Z,14.76
2022-12-08T03:47:57.937Z,14.77
2022-12-08T03:50:25.051Z,14.80
2022-12-08T03:52:51.608Z,14.81
2022-12-08T03:55:18.596Z,14.85
2022-12-08T03:57:45.152Z,14.88
2022-12-08T04:00:14.812Z,14.89
2022-12-08T04:02:41.468Z,14.91
2022-12-08T04:05:08.540Z,14.93
2022-12-08T04:07:35.085Z,14.93
2022-12-08T04:10:01.897Z,14.94
2022-12-08T04:12:28.630Z,14.93
2022-12-08T04:14:55.216Z,14.92
2022-12-08T04:17:21.759Z,14.92
2022-12-08T04:19:48.303Z,14.91
2022-12-08T04:22:14.855Z,14.88
2022-12-08T04:24:41.386Z,14.88
2022-12-08T04:27:07.943Z,14.88
2022-12-08T04:29:34.480Z,14.86
2022-12-08T04:32:01.036Z,14.82
2022-12-08T04:34:27.567Z,14.81
2022-12-08T04:36:54.136Z,14.80
2022-12-08T04:39:20.684Z,14.80
2022-12-08T04:41:47.269Z,14.79
2022-12-08T04:44:13.829Z,14.78
2022-12-08T04:46:43.365Z,14.77
2022-12-08T04:49:10.539Z,14.77
2022-12-08T04:51:37.077Z,14.75
2022-12-08T04:54:03.651Z,14.76
2022-12-08T04:56:30.186Z,14.75
2022-12-08T04:58:56.765Z,14.76
2022-12-08T05:01:23.384Z,14.76
2022-12-08T05:03:49.958Z,14.78
2022-12-08T05:06:16.527Z,14.79
2022-12-08T05:08:43.669Z,14.80
2022-12-08T05:11:11.854Z,14.84
2022-12-08T05:13:38.436Z,14.86
2022-12-08T05:16:05.878Z,14.89
2022-12-08T05:18:32.612Z,14.89
2022-12-08T05:20:59.702Z,14.92
2022-12-08T05:23:26.855Z,14.92
2022-12-08T05:25:53.479Z,14.93
2022-12-08T05:28:40.813Z,14.92
2022-12-08T05:31:07.039Z,14.91
2022-12-08T05:33:33.630Z,14.91
2022-12-08T05:36:00.192Z,14.88
2022-12-08T05:38:26.719Z,14.86
2022-12-08T05:40:53.270Z,14.86
2022-12-08T05:43:19.812Z,14.84
2022-12-08T05:45:46.395Z,14.82
2022-12-08T05:48:13.061Z,14.82
2022-12-08T05:50:39.931Z,14.80
2022-12-08T05:53:06.503Z,14.79
2022-12-08T05:55:33.073Z,14.76
2022-12-08T05:58:03.158Z,14.74
2022-12-08T06:00:34.940Z,14.73
2022-12-08T06:03:01.731Z,14.73
2022-12-08T06:05:28.417Z,14.72
2022-12-08T06:07:55.013Z,14.72
2022-12-08T06:10:21.599Z,14.72
2022-12-08T06:12:48.162Z,14.72
2022-12-08T06:15:14.728Z,14.73
2022-12-08T06:17:41.302Z,14.72
2022-12-08T06:20:08.405Z,14.74
2022-12-08T06:22:35.289Z,14.78
2022-12-08T06:25:04.980Z,14.79
2022-12-08T06:27:34.418Z,14.84
2022-12-08T06:30:01.040Z,14.87
2022-12-08T06:32:27.831Z,14.88
2022-12-08T06:34:54.418Z,14.89
2022-12-08T06:37:20.976Z,14.91
2022-12-08T06:39:47.515Z,14.91
2022-12-08T06:42:32.869Z,14.92
2022-12-08T06:45:00.162Z,14.90
2022-12-08T06:47:26.706Z,14.90
2022-12-08T06:49:53.294Z,14.87
2022-12-08T06:52:19.826Z,14.86
2022-12-08T06:54:46.370Z,14.86
2022-12-08T06:57:12.971Z,14.84
2022-12-08T06:59:40.025Z,14.81
2022-12-08T07:02:06.983Z,14.80
2022-12-08T07:04:33.601Z,14.78
2022-12-08T07:07:00.163Z,14.75
2022-12-08T07:09:26.794Z,14.74
2022-12-08T07:11:53.355Z,14.74
2022-12-08T07:14:23.686Z,14.72
2022-12-08T07:16:51.539Z,14.72
2022-12-08T07:19:18.654Z,14.72
2022-12-08T07:21:45.201Z,14.72
2022-12-08T07:24:11.790Z,14.72
2022-12-08T07:26:38.333Z,14.71
2022-12-08T07:29:04.913Z,14.71
2022-12-08T07:31:31.792Z,14.74
2022-12-08T07:33:58.588Z,14.74
2022-12-08T07:36:25.787Z,14.76
2022-12-08T07:38:55.647Z,14.78
2022-12-08T07:41:25.355Z,14.81
2022-12-08T07:43:53.606Z,14.84
2022-12-08T07:46:22.057Z,14.85
2022-12-08T07:48:48.794Z,14.87
2022-12-08T07:51:16.319Z,14.88
2022-12-08T07:53:51.677Z,14.90
2022-12-08T07:56:20.687Z,14.91
2022-12-08T07:58:47.266Z,14.89
2022-12-08T08:01:20.934Z,14.88
2022-12-08T08:03:47.718Z,14.88
2022-12-08T08:06:14.431Z,14.86
2022-12-08T08:08:41.009Z,14.85
2022-12-08T08:11:15.784Z,14.84
2022-12-08T08:13:45.873Z,14.82
2022-12-08T08:16:13.770Z,14.82
2022-12-08T08:18:40.459Z,14.82
2022-12-08T08:21:43.197Z,14.79
2022-12-08T08:23:54.144Z,14.77
2022-12-08T08:26:20.712Z,14.77
2022-12-08T08:28:48.245Z,14.77
2022-12-08T08:31:14.953Z,14.73
2022-12-08T08:33:41.588Z,14.74
2022-12-08T08:36:09.073Z,14.74
2022-12-08T08:38:40.058Z,14.77
2022-12-08T08:41:12.686Z,14.74
2022-12-08T08:43:39.374Z,14.76
2022-12-08T08:46:06.948Z,14.75
2022-12-08T08:48:33.678Z,14.76
2022-12-08T08:51:10.210Z,14.78
2022-12-08T08:53:37.063Z,14.79
2022-12-08T08:56:05.201Z,14.81
2022-12-08T08:58:31.766Z,14.85
2022-12-08T09:00:58.350Z,14.87
2022-12-08T09:03:24.927Z,14.89
2022-12-08T09:05:51.574Z,14.90
2022-12-08T09:08:18.729Z,14.91
2022-12-08T09:10:45.449Z,14.92
2022-12-08T09:13:11.997Z,14.92
2022-12-08T09:15:38.777Z,14.92
2022-12-08T09:18:06.781Z,14.92
2022-12-08T09:20:34.467Z,14.91
2022-12-08T09:23:01.333Z,14.91
2022-12-08T09:25:28.496Z,14.88
2022-12-08T09:27:55.078Z,14.86
2022-12-08T09:30:21.795Z,14.85
2022-12-08T09:32:48.368Z,14.82
2022-12-08T09:35:14.926Z,14.82
2022-12-08T09:37:41.469Z,14.81
2022-12-08T09:40:08.533Z,14.79
2022-12-08T09:42:51.787Z,14.79
2022-12-08T09:45:19.735Z,14.76
2022-12-08T09:47:53.980Z,14.79
2022-12-08T09:50:45.555Z,14.78
2022-12-08T09:53:19.805Z,14.79
2022-12-08T09:56:08.350Z,14.79
2022-12-08T09:58:47.584Z,14.80
2022-12-08T10:01:14.399Z,14.81
2022-12-08T10:03:41.826Z,14.81
2022-12-08T10:06:19.880Z,14.84
2022-12-08T10:08:55.516Z,14.87
2022-12-08T10:11:47.345Z,14.88
2022-12-08T10:14:33.569Z,14.90
2022-12-08T10:17:34.586Z,14.94
2022-12-08T10:20:12.794Z,14.95
2022-12-08T10:22:44.466Z,14.95
2022-12-08T10:25:19.814Z,14.96
2022-12-08T10:27:52.416Z,14.97
2022-12-08T10:30:20.373Z,14.95
2022-12-08T10:32:49.501Z,14.94
2022-12-08T10:35:17.637Z,14.94
2022-12-08T10:37:58.417Z,14.93
2022-12-08T10:40:28.156Z,14.91
2022-12-08T10:42:57.153Z,14.90
2022-12-08T10:45:29.759Z,14.89
2022-12-08T10:48:04.505Z,14.88
2022-12-08T10:50:36.810Z,14.90
2022-12-08T10:53:12.800Z,14.88
2022-12-08T10:55:51.111Z,14.86
2022-12-08T10:58:41.292Z,14.85
2022-12-08T11:01:20.626Z,14.86
2022-12-08T11:03:58.064Z,14.86
2022-12-08T11:06:30.549Z,14.86
2022-12-08T11:08:59.348Z,14.81
2022-12-08T11:11:45.156Z,14.80
2022-12-08T11:14:29.134Z,14.80
2022-12-08T11:17:07.467Z,14.80
2022-12-08T11:19:38.499Z,14.82
2022-12-08T11:22:27.615Z,14.83
2022-12-08T11:25:11.835Z,14.85
2022-12-08T11:27:41.187Z,14.88
2022-12-08T11:30:15.609Z,14.88
2022-12-08T11:32:44.858Z,14.90
2022-12-08T11:35:23.173Z,14.90
2022-12-08T11:37:49.719Z,14.92
2022-12-08T11:40:26.506Z,14.94
2022-12-08T11:43:25.270Z,14.93
2022-12-08T11:45:59.229Z,14.93
2022-12-08T11:48:35.394Z,14.91
2022-12-08T11:51:01.870Z,14.92
2022-12-08T11:53:47.820Z,14.90
2022-12-08T11:56:24.126Z,14.90
2022-12-08T11:59:00.242Z,14.88
2022-12-08T12:01:28.390Z,14.88
2022-12-08T12:04:06.754Z,14.85
2022-12-08T12:06:57.285Z,14.85
2022-12-08T12:09:31.301Z,14.84
2022-12-08T12:12:19.259Z,14.85
2022-12-08T12:14:59.668Z,14.82
2022-12-08T12:17:56.668Z,14.81
2022-12-08T12:20:30.638Z,14.82
2022-12-08T12:23:07.180Z,14.81
2022-12-08T12:25:35.324Z,14.80
2022-12-08T12:28:05.334Z,14.82
2022-12-08T12:30:51.629Z,14.82
2022-12-08T12:33:19.492Z,14.82
2022-12-08T12:35:50.279Z,14.84
2022-12-08T12:38:38.486Z,14.83
2022-12-08T12:41:05.649Z,14.86
2022-12-08T12:43:35.045Z,14.88
2022-12-08T12:46:23.409Z,14.89
2022-12-08T12:48:50.940Z,14.89
2022-12-08T12:51:43.646Z,14.90
2022-12-08T12:54:24.632Z,14.88
2022-12-08T12:57:14.133Z,14.90
2022-12-08T12:59:53.319Z,14.89
2022-12-08T13:02:27.310Z,14.88
2022-12-08T13:04:59.480Z,14.86
2022-12-08T13:07:28.909Z,14.87
2022-12-08T13:10:04.523Z,14.85
2022-12-08T13:12:31.308Z,14.83
2022-12-08T13:15:04.464Z,14.82
2022-12-08T13:17:33.151Z,14.80
2022-12-08T13:20:03.951Z,14.81
2022-12-08T13:23:00.655Z,14.77
2022-12-08T13:25:39.640Z,14.78
2022-12-08T13:28:22.864Z,14.77
2022-12-08T13:30:51.749Z,14.78
2022-12-08T13:33:24.231Z,14.77
2022-12-08T13:35:57.661Z,14.76
2022-12-08T13:38:28.230Z,14.79
2022-12-08T13:40:55.996Z,14.80
2022-12-08T13:43:25.453Z,14.79
2022-12-08T13:55:58.691Z,14.82
2022-12-08T13:57:38.017Z,14.88
2022-12-08T14:00:08.642Z,14.86
2022-12-08T14:02:47.345Z,14.89
2022-12-08T14:05:34.894Z,14.90
2022-12-08T14:08:02.487Z,14.89
2022-12-08T14:10:31.869Z,14.90
2022-12-08T14:13:04.401Z,14.90
2022-12-08T14:15:38.261Z,14.89
2022-12-08T14:18:06.383Z,14.89
2022-12-08T14:20:51.783Z,14.88
2022-12-08T14:23:21.312Z,14.87
2022-12-08T14:25:48.146Z,14.85
2022-12-08T14:28:14.831Z,14.84
2022-12-08T14:30:41.422Z,14.82
2022-12-08T14:33:13.774Z,14.81
2022-12-08T14:35:40.326Z,14.80
2022-12-08T14:38:13.909Z,14.80
2022-12-08T14:40:43.020Z,14.79
2022-12-08T14:43:09.545Z,14.79
2022-12-08T14:45:39.139Z,14.79
2022-12-08T14:48:39.260Z,14.79
2022-12-08T14:51:16.852Z,14.80
2022-12-08T14:54:01.198Z,14.82
2022-12-08T14:56:37.004Z,14.82
2022-12-08T14:59:13.191Z,14.81
2022-12-08T15:01:40.342Z,14.84
2022-12-08T15:04:12.822Z,14.85
2022-12-08T15:06:55.527Z,14.86
2022-12-08T15:09:40.957Z,14.88
2022-12-08T15:12:13.430Z,14.88
2022-12-08T15:15:14.955Z,14.88
2022-12-08T15:17:51.653Z,14.90
2022-12-08T15:20:39.305Z,14.89
2022-12-08T15:23:05.898Z,14.89
2022-12-08T15:25:32.715Z,14.88
2022-12-08T15:27:59.322Z,14.87
2022-12-08T15:30:26.526Z,14.87
2022-12-08T15:32:54.241Z,14.85
2022-12-08T15:35:21.363Z,14.85
2022-12-08T15:37:47.984Z,14.82
2022-12-08T15:40:19.780Z,14.83
2022-12-08T15:42:46.372Z,14.79
2022-12-08T15:45:16.730Z,14.79
2022-12-08T15:47:43.985Z,14.79
2022-12-08T15:50:18.990Z,14.79
2022-12-08T15:52:45.714Z,14.77
2022-12-08T15:55:19.143Z,14.77
2022-12-08T15:58:45.020Z,14.78
2022-12-08T16:00:56.325Z,14.78
2022-12-08T16:04:13.096Z,14.79
2022-12-08T16:09:12.950Z,14.80
2022-12-08T16:12:09.088Z,14.81
2022-12-08T16:17:23.858Z,14.85
2022-12-08T16:19:50.415Z,14.88
2022-12-08T16:25:21.795Z,14.91
2022-12-08T16:28:01.395Z,14.92
2022-12-08T16:30:32.532Z,14.92
2022-12-08T16:32:59.106Z,14.93
2022-12-08T16:35:25.627Z,14.93
2022-12-08T16:37:52.170Z,14.92
2022-12-08T16:40:18.874Z,14.90
2022-12-08T16:42:50.047Z,14.92
2022-12-08T16:45:21.027Z,14.90
2022-12-08T16:47:49.993Z,14.89
2022-12-08T16:50:28.178Z,14.88
2022-12-08T16:53:09.011Z,14.87
2022-12-08T16:55:35.650Z,14.86
2022-12-08T16:58:03.570Z,14.83
2022-12-08T17:00:36.621Z,14.81
2022-12-08T17:03:04.709Z,14.81
2022-12-08T17:05:31.311Z,14.81
2022-12-08T17:07:59.134Z,14.80
2022-12-08T17:10:28.545Z,14.82
2022-12-08T17:12:56.540Z,14.81
2022-12-08T17:15:25.067Z,14.82
2022-12-08T17:17:52.301Z,14.81
2022-12-08T17:20:22.305Z,14.82
2022-12-08T17:22:49.393Z,14.83
2022-12-08T17:25:16.232Z,14.84
2022-12-08T17:27:43.053Z,14.85
2022-12-08T17:30:11.859Z,14.86
2022-12-08T17:32:39.224Z,14.86
2022-12-08T17:35:06.905Z,14.88
2022-12-08T17:37:33.915Z,14.89
2022-12-08T17:40:00.828Z,14.91
2022-12-08T17:42:27.441Z,14.91
2022-12-08T17:44:54.663Z,14.91
2022-12-08T17:47:21.583Z,14.93
2022-12-08T17:49:48.553Z,14.90
2022-12-08T17:52:15.087Z,14.89
2022-12-08T17:54:41.651Z,14.89
2022-12-08T17:57:08.176Z,14.89
2022-12-08T17:59:34.733Z,14.87
2022-12-08T18:02:01.413Z,14.86
2022-12-08T18:04:28.419Z,14.86
2022-12-08T18:06:55.218Z,14.84
2022-12-08T18:09:22.023Z,14.83
2022-12-08T18:11:48.817Z,14.81
2022-12-08T18:14:16.224Z,14.80
2022-12-08T18:16:45.272Z,14.81
2022-12-08T18:19:12.936Z,14.79
2022-12-08T18:21:40.569Z,14.79
2022-12-08T18:24:08.717Z,14.80
2022-12-08T18:26:35.532Z,14.80
2022-12-08T18:29:02.142Z,14.80
2022-12-08T18:31:28.865Z,14.80
2022-12-08T18:33:55.650Z,14.80
2022-12-08T18:36:25.019Z,14.83
2022-12-08T18:38:52.576Z,14.84
2022-12-08T18:41:24.448Z,14.83
2022-12-08T18:43:51.833Z,14.88
2022-12-08T18:46:18.473Z,14.89
2022-12-08T18:48:47.302Z,14.90
2022-12-08T18:51:15.909Z,14.93
2022-12-08T18:53:43.002Z,14.93
2022-12-08T18:56:18.487Z,14.94
2022-12-08T18:58:45.019Z,14.94
2022-12-08T19:01:13.965Z,14.95
2022-12-08T19:03:48.840Z,14.94
2022-12-08T19:06:25.188Z,14.95
2022-12-08T19:08:51.729Z,14.93
2022-12-08T19:11:19.121Z,14.93
2022-12-08T19:13:46.503Z,14.92
2022-12-08T19:16:13.589Z,14.88
2022-12-08T19:18:40.277Z,14.85
2022-12-08T19:21:07.587Z,14.86
2022-12-08T19:23:34.665Z,14.84
2022-12-08T19:26:02.081Z,14.83
2022-12-08T19:28:28.904Z,14.82
2022-12-08T19:30:55.559Z,14.82
2022-12-08T19:33:22.179Z,14.80
2022-12-08T19:35:52.644Z,14.81
2022-12-08T19:38:19.635Z,14.81
2022-12-08T19:41:05.024Z,14.80
2022-12-08T19:43:50.167Z,14.80
2022-12-08T19:46:17.123Z,14.82
2022-12-08T19:48:44.020Z,14.81
2022-12-08T19:51:10.732Z,14.82
2022-12-08T19:53:37.391Z,14.83
2022-12-08T19:56:04.118Z,14.84
2022-12-08T19:58:30.669Z,14.85
2022-12-08T20:00:57.203Z,14.85
2022-12-08T20:03:23.905Z,14.86
2022-12-08T20:05:55.434Z,14.87
2022-12-08T20:08:22.180Z,14.88
2022-12-08T20:10:48.840Z,14.88
2022-12-08T20:13:34.158Z,14.88
2022-12-08T20:16:00.761Z,14.89
2022-12-08T20:18:28.688Z,14.88
2022-12-08T20:20:55.328Z,14.88
2022-12-08T20:23:22.107Z,14.86
2022-12-08T20:25:48.749Z,14.86
2022-12-08T20:28:15.357Z,14.85
2022-12-08T20:30:42.807Z,14.84
2022-12-08T20:33:12.622Z,14.82
2022-12-08T20:35:39.195Z,14.79
2022-12-08T20:38:07.048Z,14.79
2022-12-08T20:40:33.644Z,14.78
2022-12-08T20:43:00.322Z,14.78
2022-12-08T20:45:26.911Z,14.78
2022-12-08T20:47:53.475Z,14.78
2022-12-08T20:50:20.183Z,14.78
2022-12-08T20:52:46.766Z,14.80
2022-12-08T20:55:13.332Z,14.80
2022-12-08T20:57:40.131Z,14.81
2022-12-08T21:00:07.784Z,14.83
2022-12-08T21:02:35.017Z,14.84
2022-12-08T21:05:01.781Z,14.85
2022-12-08T21:07:28.487Z,14.86
2022-12-08T21:09:55.092Z,14.86
2022-12-08T21:12:21.659Z,14.86
2022-12-08T21:14:48.349Z,14.88
2022-12-08T21:17:15.090Z,14.87
2022-12-08T21:19:41.835Z,14.88
2022-12-08T21:22:08.525Z,14.89
2022-12-08T21:24:35.180Z,14.90
2022-12-08T21:27:01.947Z,14.90
2022-12-08T21:29:28.682Z,14.88
2022-12-08T21:31:57.292Z,14.88
2022-12-08T21:34:25.199Z,14.88
2022-12-08T21:36:52.914Z,14.86
2022-12-08T21:39:20.427Z,14.85
2022-12-08T21:42:05.582Z,14.85
2022-12-08T21:44:35.293Z,14.83
2022-12-08T21:47:02.758Z,14.81
2022-12-08T21:49:29.485Z,14.80
2022-12-08T21:51:56.362Z,14.78
2022-12-08T21:54:23.024Z,14.77
2022-12-08T21:56:50.192Z,14.78
2022-12-08T21:59:18.126Z,14.78
2022-12-08T22:01:45.224Z,14.79
2022-12-08T22:04:12.623Z,14.78
2022-12-08T22:06:39.570Z,14.79
2022-12-08T22:09:07.197Z,14.79
2022-12-08T22:11:34.065Z,14.81
2022-12-08T22:14:00.726Z,14.81
2022-12-08T22:16:27.413Z,14.81
2022-12-08T22:18:54.183Z,14.82
2022-12-08T22:21:21.916Z,14.82
2022-12-08T22:23:49.768Z,14.83
2022-12-08T22:26:16.335Z,14.84
2022-12-08T22:28:43.311Z,14.81
2022-12-08T22:31:19.408Z,14.83
2022-12-08T22:33:46.181Z,14.84
2022-12-08T22:36:18.436Z,14.85
2022-12-08T22:38:45.467Z,14.84
2022-12-08T22:41:12.092Z,14.85
2022-12-08T22:43:38.921Z,14.84
2022-12-08T22:46:12.114Z,14.84
2022-12-08T22:48:39.244Z,14.84
2022-12-08T22:51:06.343Z,14.82
2022-12-08T22:53:33.056Z,14.81
2022-12-08T22:55:59.935Z,14.80
2022-12-08T22:58:26.672Z,14.79
2022-12-08T23:00:53.322Z,14.77
2022-12-08T23:03:20.136Z,14.77
2022-12-08T23:05:46.966Z,14.78
2022-12-08T23:08:15.864Z,14.77
2022-12-08T23:10:43.204Z,14.78
2022-12-08T23:13:10.668Z,14.79
2022-12-08T23:15:37.823Z,14.79
2022-12-08T23:18:05.166Z,14.80
2022-12-08T23:20:32.396Z,14.82
2022-12-08T23:22:59.295Z,14.82
2022-12-08T23:25:26.014Z,14.82
2022-12-08T23:27:52.608Z,14.84
2022-12-08T23:30:19.128Z,14.85
2022-12-08T23:32:45.736Z,14.85
2022-12-08T23:35:12.436Z,14.86
2022-12-08T23:37:39.263Z,14.85
2022-12-08T23:40:07.040Z,14.86
2022-12-08T23:42:33.874Z,14.85
2022-12-08T23:45:00.473Z,14.85
2022-12-08T23:47:27.352Z,14.86
2022-12-08T23:49:53.986Z,14.84
2022-12-08T23:52:20.633Z,14.85
2022-12-08T23:54:49.937Z,14.83
2022-12-08T23:57:16.636Z,14.86
2022-12-08T23:59:43.170Z,14.81
